Time;durP1;ratioP1;P1;durP2;ratioP2;P2;SDS_P1;SDS_P2;PMS_P1;PMS_P2;Temp;Humidity;BMP_temperature;BMP_pressure;BME280_temperature;BME280_humidity;BME280_pressure;Samples;Min_cycle;Max_cycle;Signal;HPM_P1;HPM_P2
2019/06/06 00:00:20;;;;;;;7.95;7.249999;;;;;;;16.57;60.48926;94010.85;;;;
2019/06/06 00:01:23;;;;;;;7.95;7.249999;;;;;;;16.57;60.48926;94010.85;;;;
2019/06/06 00:02:24;;;;;;;7.95;7.249999;;;;;;;16.57;60.48926;94010.85;;;;
2019/06/06 00:03:25;;;;;;;7.95;7.249999;;;;;;;16.57;60.48926;94010.85;;;;
2019/06/06 00:04:26;;;;;;;7.95;7.249999;;;;;;;16.57;60.48926;94010.85;;;;
2019/06/06 00:05:27;;;;;;;7.95;7.249999;;;;;;;16.57;60.48926;94010.85;;;;
2019/06/06 00:06:29;;;;;;;7.95;7.349999;;;;;;;16.47;60.94336;94025.98;;;;
2019/06/06 00:07:30;;;;;;;7.95;7.349999;;;;;;;16.47;60.94336;94025.98;;;;
2019/06/06 00:08:31;;;;;;;7.95;7.349999;;;;;;;16.47;60.94336;94025.98;;;;
2019/06/06 00:09:32;;;;;;;7.95;7.349999;;;;;;;16.47;60.94336;94025.98;;;;
2019/06/06 00:10:33;;;;;;;7.95;7.349999;;;;;;;16.47;60.94336;94025.98;;;;
2019/06/06 00:11:34;;;;;;;7.95;7.349999;;;;;;;16.47;60.94336;94025.98;;;;
2019/06/06 00:12:35;;;;;;;7.95;7.349999;;;;;;;16.47;60.94336;94025.98;;;;
2019/06/06 00:13:36;;;;;;;7.95;7.349999;;;;;;;16.47;60.94336;94025.98;;;;
2019/06/06 00:14:37;;;;;;;7.95;7.349999;;;;;;;16.47;60.94336;94025.98;;;;
2019/06/06 00:15:38;;;;;;;7.95;7.349999;;;;;;;16.47;60.94336;94025.98;;;;
2019/06/06 00:16:39;;;;;;;8.15;7.45;;;;;;;16.27;61.52539;94034;;;;
2019/06/06 00:17:40;;;;;;;8.15;7.45;;;;;;;16.27;61.52539;94034;;;;
2019/06/06 00:18:41;;;;;;;8.15;7.45;;;;;;;16.27;61.52539;94034;;;;
2019/06/06 00:19:42;;;;;;;8.15;7.45;;;;;;;16.27;61.52539;94034;;;;
2019/06/06 00:20:43;;;;;;;8.15;7.45;;;;;;;16.27;61.52539;94034;;;;
2019/06/06 00:21:44;;;;;;;8.15;7.45;;;;;;;16.27;61.52539;94034;;;;
2019/06/06 00:22:46;;;;;;;8.15;7.45;;;;;;;16.27;61.52539;94034;;;;
2019/06/06 00:23:47;;;;;;;8.15;7.45;;;;;;;16.27;61.52539;94034;;;;
2019/06/06 00:24:48;;;;;;;8.15;7.45;;;;;;;16.27;61.52539;94034;;;;
2019/06/06 00:25:49;;;;;;;8.15;7.45;;;;;;;16.27;61.52539;94034;;;;
2019/06/06 00:26:50;;;;;;;8.15;7.45;;;;;;;16.27;61.52539;94034;;;;
2019/06/06 00:27:51;;;;;;;8.849999;8.049999;;;;;;;16.14;62.21582;94043.77;;;;
2019/06/06 00:28:52;;;;;;;8.849999;8.049999;;;;;;;16.14;62.21582;94043.77;;;;
2019/06/06 00:29:53;;;;;;;8.849999;8.049999;;;;;;;16.14;62.21582;94043.77;;;;
2019/06/06 00:30:54;;;;;;;8.849999;8.049999;;;;;;;16.14;62.21582;94043.77;;;;
2019/06/06 00:31:55;;;;;;;8.849999;8.049999;;;;;;;16.14;62.21582;94043.77;;;;
2019/06/06 00:32:56;;;;;;;8.849999;8.049999;;;;;;;16.14;62.21582;94043.77;;;;
2019/06/06 00:33:57;;;;;;;8.849999;8.049999;;;;;;;16.14;62.21582;94043.77;;;;
2019/06/06 00:34:59;;;;;;;8.849999;8.049999;;;;;;;16.14;62.21582;94043.77;;;;
2019/06/06 00:36:00;;;;;;;8.849999;8.049999;;;;;;;16.14;62.21582;94043.77;;;;
2019/06/06 00:37:01;;;;;;;8.849999;8.049999;;;;;;;16.14;62.21582;94043.77;;;;
2019/06/06 00:38:02;;;;;;;8.950002;8.15;;;;;;;15.95;62.98242;94052.56;;;;
2019/06/06 00:39:03;;;;;;;8.950002;8.15;;;;;;;15.95;62.98242;94052.56;;;;
2019/06/06 00:40:05;;;;;;;8.950002;8.15;;;;;;;15.95;62.98242;94052.56;;;;
2019/06/06 00:41:06;;;;;;;8.950002;8.15;;;;;;;15.95;62.98242;94052.56;;;;
2019/06/06 00:42:08;;;;;;;8.950002;8.15;;;;;;;15.95;62.98242;94052.56;;;;
2019/06/06 00:43:09;;;;;;;8.950002;8.15;;;;;;;15.95;62.98242;94052.56;;;;
2019/06/06 00:44:10;;;;;;;8.950002;8.15;;;;;;;15.95;62.98242;94052.56;;;;
2019/06/06 00:45:11;;;;;;;8.950002;8.15;;;;;;;15.95;62.98242;94052.56;;;;
2019/06/06 00:46:12;;;;;;;8.950002;8.15;;;;;;;15.95;62.98242;94052.56;;;;
2019/06/06 00:47:13;;;;;;;8.950002;8.15;;;;;;;15.95;62.98242;94052.56;;;;
2019/06/06 00:48:14;;;;;;;8.950002;8.15;;;;;;;15.95;62.98242;94052.56;;;;
2019/06/06 00:49:15;;;;;;;8.549999;7.849999;;;;;;;15.82;63.81152;94062.44;;;;
2019/06/06 00:50:16;;;;;;;8.549999;7.849999;;;;;;;15.82;63.81152;94062.44;;;;
2019/06/06 00:51:17;;;;;;;8.549999;7.849999;;;;;;;15.82;63.81152;94062.44;;;;
2019/06/06 00:52:18;;;;;;;8.549999;7.849999;;;;;;;15.82;63.81152;94062.44;;;;
2019/06/06 00:53:19;;;;;;;8.549999;7.849999;;;;;;;15.82;63.81152;94062.44;;;;
2019/06/06 00:54:20;;;;;;;8.549999;7.849999;;;;;;;15.82;63.81152;94062.44;;;;
2019/06/06 00:55:21;;;;;;;8.549999;7.849999;;;;;;;15.82;63.81152;94062.44;;;;
2019/06/06 00:56:23;;;;;;;8.549999;7.849999;;;;;;;15.82;63.81152;94062.44;;;;
2019/06/06 00:57:24;;;;;;;8.549999;7.849999;;;;;;;15.82;63.81152;94062.44;;;;
2019/06/06 00:58:25;;;;;;;8.549999;7.849999;;;;;;;15.82;63.81152;94062.44;;;;
2019/06/06 00:59:26;;;;;;;9.700001;8.799999;;;;;;;15.63;64.33691;94074.88;;;;
2019/06/06 01:00:27;;;;;;;9.700001;8.799999;;;;;;;15.63;64.33691;94074.88;;;;
2019/06/06 01:01:28;;;;;;;9.700001;8.799999;;;;;;;15.63;64.33691;94074.88;;;;
2019/06/06 01:02:29;;;;;;;9.700001;8.799999;;;;;;;15.63;64.33691;94074.88;;;;
2019/06/06 01:03:30;;;;;;;9.700001;8.799999;;;;;;;15.63;64.33691;94074.88;;;;
2019/06/06 01:04:31;;;;;;;9.700001;8.799999;;;;;;;15.63;64.33691;94074.88;;;;
2019/06/06 01:05:33;;;;;;;9.700001;8.799999;;;;;;;15.63;64.33691;94074.88;;;;
2019/06/06 01:06:34;;;;;;;9.700001;8.799999;;;;;;;15.63;64.33691;94074.88;;;;
2019/06/06 01:07:35;;;;;;;9.700001;8.799999;;;;;;;15.63;64.33691;94074.88;;;;
2019/06/06 01:08:36;;;;;;;9.700001;8.799999;;;;;;;15.63;64.33691;94074.88;;;;
2019/06/06 01:09:38;;;;;;;9.099999;8.1;;;;;;;15.52;65.0166;94093.28;;;;
2019/06/06 01:10:39;;;;;;;9.099999;8.1;;;;;;;15.52;65.0166;94093.28;;;;
2019/06/06 01:12:47;;;;;;;9.099999;8.1;;;;;;;15.52;65.0166;94093.28;;;;
2019/06/06 01:13:48;;;;;;;9.099999;8.1;;;;;;;15.52;65.0166;94093.28;;;;
2019/06/06 01:14:49;;;;;;;9.099999;8.1;;;;;;;15.52;65.0166;94093.28;;;;
2019/06/06 01:15:50;;;;;;;9.099999;8.1;;;;;;;15.52;65.0166;94093.28;;;;
2019/06/06 01:16:51;;;;;;;9.099999;8.1;;;;;;;15.52;65.0166;94093.28;;;;
2019/06/06 01:17:53;;;;;;;9.099999;8.1;;;;;;;15.52;65.0166;94093.28;;;;
2019/06/06 01:18:54;;;;;;;9.099999;8.1;;;;;;;15.52;65.0166;94093.28;;;;
2019/06/06 01:19:55;;;;;;;9.099999;8.1;;;;;;;15.52;65.0166;94093.28;;;;
2019/06/06 01:20:56;;;;;;;10.2;8.550001;;;;;;;15.36;65.68652;94143.54;;;;
2019/06/06 01:21:57;;;;;;;10.2;8.550001;;;;;;;15.36;65.68652;94143.54;;;;
2019/06/06 01:22:58;;;;;;;10.2;8.550001;;;;;;;15.36;65.68652;94143.54;;;;
2019/06/06 01:23:59;;;;;;;10.2;8.550001;;;;;;;15.36;65.68652;94143.54;;;;
2019/06/06 01:25:01;;;;;;;10.2;8.550001;;;;;;;15.36;65.68652;94143.54;;;;
2019/06/06 01:26:02;;;;;;;10.2;8.550001;;;;;;;15.36;65.68652;94143.54;;;;
2019/06/06 01:27:04;;;;;;;10.2;8.550001;;;;;;;15.36;65.68652;94143.54;;;;
2019/06/06 01:28:05;;;;;;;10.2;8.550001;;;;;;;15.36;65.68652;94143.54;;;;
2019/06/06 01:29:06;;;;;;;10.2;8.550001;;;;;;;15.36;65.68652;94143.54;;;;
2019/06/06 01:30:07;;;;;;;10.2;8.550001;;;;;;;15.36;65.68652;94143.54;;;;
2019/06/06 01:31:08;;;;;;;10;8.950001;;;;;;;15.35;66.63965;94167.74;;;;
2019/06/06 01:32:09;;;;;;;10;8.950001;;;;;;;15.35;66.63965;94167.74;;;;
2019/06/06 01:33:10;;;;;;;10;8.950001;;;;;;;15.35;66.63965;94167.74;;;;
2019/06/06 01:34:12;;;;;;;10;8.950001;;;;;;;15.35;66.63965;94167.74;;;;
2019/06/06 01:35:13;;;;;;;10;8.950001;;;;;;;15.35;66.63965;94167.74;;;;
2019/06/06 01:36:14;;;;;;;10;8.950001;;;;;;;15.35;66.63965;94167.74;;;;
2019/06/06 01:37:15;;;;;;;10;8.950001;;;;;;;15.35;66.63965;94167.74;;;;
2019/06/06 01:38:16;;;;;;;10;8.950001;;;;;;;15.35;66.63965;94167.74;;;;
2019/06/06 01:39:17;;;;;;;10;8.950001;;;;;;;15.35;66.63965;94167.74;;;;
2019/06/06 01:40:18;;;;;;;10;8.950001;;;;;;;15.35;66.63965;94167.74;;;;
2019/06/06 01:41:19;;;;;;;9.550001;8.5;;;;;;;15.32;67.84863;94168.87;;;;
2019/06/06 01:42:21;;;;;;;9.550001;8.5;;;;;;;15.32;67.84863;94168.87;;;;
2019/06/06 01:43:22;;;;;;;9.550001;8.5;;;;;;;15.32;67.84863;94168.87;;;;
2019/06/06 01:44:23;;;;;;;9.550001;8.5;;;;;;;15.32;67.84863;94168.87;;;;
2019/06/06 01:45:24;;;;;;;9.550001;8.5;;;;;;;15.32;67.84863;94168.87;;;;
2019/06/06 01:46:25;;;;;;;9.550001;8.5;;;;;;;15.32;67.84863;94168.87;;;;
2019/06/06 01:47:26;;;;;;;9.550001;8.5;;;;;;;15.32;67.84863;94168.87;;;;
2019/06/06 01:48:27;;;;;;;9.550001;8.5;;;;;;;15.32;67.84863;94168.87;;;;
2019/06/06 01:49:29;;;;;;;9.550001;8.5;;;;;;;15.32;67.84863;94168.87;;;;
2019/06/06 01:50:30;;;;;;;9.550001;8.5;;;;;;;15.32;67.84863;94168.87;;;;
2019/06/06 01:51:31;;;;;;;9.550001;8.5;;;;;;;15.32;67.84863;94168.87;;;;
2019/06/06 01:52:32;;;;;;;10.3;8.449999;;;;;;;15.43;68.01758;94183.04;;;;
2019/06/06 01:53:33;;;;;;;10.3;8.449999;;;;;;;15.43;68.01758;94183.04;;;;
2019/06/06 01:54:34;;;;;;;10.3;8.449999;;;;;;;15.43;68.01758;94183.04;;;;
2019/06/06 01:55:35;;;;;;;10.3;8.449999;;;;;;;15.43;68.01758;94183.04;;;;
2019/06/06 01:56:36;;;;;;;10.3;8.449999;;;;;;;15.43;68.01758;94183.04;;;;
2019/06/06 01:57:38;;;;;;;10.3;8.449999;;;;;;;15.43;68.01758;94183.04;;;;
2019/06/06 01:58:39;;;;;;;10.3;8.449999;;;;;;;15.43;68.01758;94183.04;;;;
2019/06/06 01:59:41;;;;;;;10.3;8.449999;;;;;;;15.43;68.01758;94183.04;;;;
2019/06/06 02:00:42;;;;;;;10.3;8.449999;;;;;;;15.43;68.01758;94183.04;;;;
2019/06/06 02:01:43;;;;;;;10.3;8.449999;;;;;;;15.43;68.01758;94183.04;;;;
2019/06/06 02:02:44;;;;;;;8.700001;7.9;;;;;;;15.44;68.71387;94187.78;;;;
2019/06/06 02:03:45;;;;;;;8.700001;7.9;;;;;;;15.44;68.71387;94187.78;;;;
2019/06/06 02:04:46;;;;;;;8.700001;7.9;;;;;;;15.44;68.71387;94187.78;;;;
2019/06/06 02:05:48;;;;;;;8.700001;7.9;;;;;;;15.44;68.71387;94187.78;;;;
2019/06/06 02:06:49;;;;;;;8.700001;7.9;;;;;;;15.44;68.71387;94187.78;;;;
2019/06/06 02:07:50;;;;;;;8.700001;7.9;;;;;;;15.44;68.71387;94187.78;;;;
2019/06/06 02:08:52;;;;;;;8.700001;7.9;;;;;;;15.44;68.71387;94187.78;;;;
2019/06/06 02:09:53;;;;;;;8.700001;7.9;;;;;;;15.44;68.71387;94187.78;;;;
2019/06/06 02:10:54;;;;;;;8.700001;7.9;;;;;;;15.44;68.71387;94187.78;;;;
2019/06/06 02:11:56;;;;;;;8.700001;7.9;;;;;;;15.44;68.71387;94187.78;;;;
2019/06/06 02:12:57;;;;;;;8.700001;7.9;;;;;;;15.44;68.71387;94187.78;;;;
2019/06/06 02:13:58;;;;;;;8.15;7.35;;;;;;;15.74;69.19336;94212.8;;;;
2019/06/06 02:14:59;;;;;;;8.15;7.35;;;;;;;15.74;69.19336;94212.8;;;;
2019/06/06 02:16:01;;;;;;;8.15;7.35;;;;;;;15.74;69.19336;94212.8;;;;
2019/06/06 02:17:02;;;;;;;8.15;7.35;;;;;;;15.74;69.19336;94212.8;;;;
2019/06/06 02:18:03;;;;;;;8.15;7.35;;;;;;;15.74;69.19336;94212.8;;;;
2019/06/06 02:19:04;;;;;;;8.15;7.35;;;;;;;15.74;69.19336;94212.8;;;;
2019/06/06 02:20:05;;;;;;;8.15;7.35;;;;;;;15.74;69.19336;94212.8;;;;
2019/06/06 02:21:07;;;;;;;8.15;7.35;;;;;;;15.74;69.19336;94212.8;;;;
2019/06/06 02:22:08;;;;;;;8.15;7.35;;;;;;;15.74;69.19336;94212.8;;;;
2019/06/06 02:23:09;;;;;;;8.15;7.35;;;;;;;15.74;69.19336;94212.8;;;;
2019/06/06 02:24:10;;;;;;;8.15;7.35;;;;;;;15.74;69.19336;94212.8;;;;
2019/06/06 02:25:11;;;;;;;8.15;7.35;;;;;;;15.74;69.19336;94212.8;;;;
2019/06/06 02:26:13;;;;;;;8.15;7.35;;;;;;;15.74;69.19336;94212.8;;;;
2019/06/06 02:27:14;;;;;;;8.15;7.35;;;;;;;15.74;69.19336;94212.8;;;;
2019/06/06 02:28:16;;;;;;;8.15;7.35;;;;;;;15.74;69.19336;94212.8;;;;
2019/06/06 02:29:17;;;;;;;8.15;7.35;;;;;;;15.74;69.19336;94212.8;;;;
2019/06/06 02:30:18;;;;;;;8.15;7.35;;;;;;;15.74;69.19336;94212.8;;;;
2019/06/06 02:31:26;;;;;;;8.15;7.35;;;;;;;15.74;69.19336;94212.8;;;;
2019/06/06 02:32:27;;;;;;;8.15;7.35;;;;;;;15.74;69.19336;94212.8;;;;
2019/06/06 02:33:28;;;;;;;8.15;7.35;;;;;;;15.74;69.19336;94212.8;;;;
2019/06/06 02:34:29;;;;;;;6.4;5.65;;;;;;;17.1;68.37402;94252.29;;;;
2019/06/06 02:35:30;;;;;;;6.4;5.65;;;;;;;17.1;68.37402;94252.29;;;;
2019/06/06 02:36:31;;;;;;;6.4;5.65;;;;;;;17.1;68.37402;94252.29;;;;
2019/06/06 02:37:33;;;;;;;6.4;5.65;;;;;;;17.1;68.37402;94252.29;;;;
2019/06/06 02:38:34;;;;;;;6.4;5.65;;;;;;;17.1;68.37402;94252.29;;;;
2019/06/06 02:39:35;;;;;;;6.4;5.65;;;;;;;17.1;68.37402;94252.29;;;;
2019/06/06 02:40:36;;;;;;;6.4;5.65;;;;;;;17.1;68.37402;94252.29;;;;
2019/06/06 02:41:37;;;;;;;6.4;5.65;;;;;;;17.1;68.37402;94252.29;;;;
2019/06/06 02:42:38;;;;;;;6.4;5.65;;;;;;;17.1;68.37402;94252.29;;;;
2019/06/06 02:43:39;;;;;;;6.4;5.65;;;;;;;17.1;68.37402;94252.29;;;;
2019/06/06 02:44:41;;;;;;;6.4;5.65;;;;;;;17.1;68.37402;94252.29;;;;
2019/06/06 02:45:42;;;;;;;6.4;5.8;;;;;;;17.54;67.87402;94268.91;;;;
2019/06/06 02:46:43;;;;;;;6.4;5.8;;;;;;;17.54;67.87402;94268.91;;;;
2019/06/06 02:47:44;;;;;;;6.4;5.8;;;;;;;17.54;67.87402;94268.91;;;;
2019/06/06 02:48:45;;;;;;;6.4;5.8;;;;;;;17.54;67.87402;94268.91;;;;
2019/06/06 02:49:46;;;;;;;6.4;5.8;;;;;;;17.54;67.87402;94268.91;;;;
2019/06/06 02:50:47;;;;;;;6.4;5.8;;;;;;;17.54;67.87402;94268.91;;;;
2019/06/06 02:51:48;;;;;;;6.4;5.8;;;;;;;17.54;67.87402;94268.91;;;;
2019/06/06 02:52:49;;;;;;;6.4;5.8;;;;;;;17.54;67.87402;94268.91;;;;
2019/06/06 02:53:50;;;;;;;6.4;5.8;;;;;;;17.54;67.87402;94268.91;;;;
2019/06/06 02:54:51;;;;;;;6.4;5.8;;;;;;;17.54;67.87402;94268.91;;;;
2019/06/06 02:55:53;;;;;;;7.950001;5.45;;;;;;;17.97;67.2627;94305.46;;;;
2019/06/06 02:56:54;;;;;;;7.950001;5.45;;;;;;;17.97;67.2627;94305.46;;;;
2019/06/06 02:57:55;;;;;;;7.950001;5.45;;;;;;;17.97;67.2627;94305.46;;;;
2019/06/06 02:58:56;;;;;;;7.950001;5.45;;;;;;;17.97;67.2627;94305.46;;;;
2019/06/06 02:59:57;;;;;;;7.950001;5.45;;;;;;;17.97;67.2627;94305.46;;;;
2019/06/06 03:00:58;;;;;;;7.950001;5.45;;;;;;;17.97;67.2627;94305.46;;;;
2019/06/06 03:02:22;;;;;;;7.950001;5.45;;;;;;;17.97;67.2627;94305.46;;;;
2019/06/06 03:03:24;;;;;;;7.950001;5.45;;;;;;;17.97;67.2627;94305.46;;;;
2019/06/06 03:04:25;;;;;;;7.950001;5.45;;;;;;;17.97;67.2627;94305.46;;;;
2019/06/06 03:05:26;;;;;;;7.950001;5.45;;;;;;;17.97;67.2627;94305.46;;;;
2019/06/06 03:06:27;;;;;;;6.15;5.5;;;;;;;18.1;66.99902;94341.49;;;;
2019/06/06 03:07:28;;;;;;;6.15;5.5;;;;;;;18.1;66.99902;94341.49;;;;
2019/06/06 03:08:29;;;;;;;6.15;5.5;;;;;;;18.1;66.99902;94341.49;;;;
2019/06/06 03:09:31;;;;;;;6.15;5.5;;;;;;;18.1;66.99902;94341.49;;;;
2019/06/06 03:10:32;;;;;;;6.15;5.5;;;;;;;18.1;66.99902;94341.49;;;;
2019/06/06 03:11:33;;;;;;;6.15;5.5;;;;;;;18.1;66.99902;94341.49;;;;
2019/06/06 03:12:35;;;;;;;6.15;5.5;;;;;;;18.1;66.99902;94341.49;;;;
2019/06/06 03:13:36;;;;;;;6.15;5.5;;;;;;;18.1;66.99902;94341.49;;;;
2019/06/06 03:14:38;;;;;;;6.15;5.5;;;;;;;18.1;66.99902;94341.49;;;;
2019/06/06 03:15:39;;;;;;;6.15;5.5;;;;;;;18.1;66.99902;94341.49;;;;
2019/06/06 03:16:40;;;;;;;5.799999;5.3;;;;;;;18.07;66.72363;94363.83;;;;
2019/06/06 03:17:41;;;;;;;5.799999;5.3;;;;;;;18.07;66.72363;94363.83;;;;
2019/06/06 03:18:43;;;;;;;5.799999;5.3;;;;;;;18.07;66.72363;94363.83;;;;
2019/06/06 03:19:44;;;;;;;5.799999;5.3;;;;;;;18.07;66.72363;94363.83;;;;
2019/06/06 03:20:45;;;;;;;5.799999;5.3;;;;;;;18.07;66.72363;94363.83;;;;
2019/06/06 03:21:47;;;;;;;5.799999;5.3;;;;;;;18.07;66.72363;94363.83;;;;
2019/06/06 03:22:48;;;;;;;5.799999;5.3;;;;;;;18.07;66.72363;94363.83;;;;
2019/06/06 03:23:49;;;;;;;5.799999;5.3;;;;;;;18.07;66.72363;94363.83;;;;
2019/06/06 03:24:50;;;;;;;5.799999;5.3;;;;;;;18.07;66.72363;94363.83;;;;
2019/06/06 03:25:51;;;;;;;5.799999;5.3;;;;;;;18.07;66.72363;94363.83;;;;
2019/06/06 03:26:52;;;;;;;5.799999;5.3;;;;;;;18.07;66.72363;94363.83;;;;
2019/06/06 03:27:53;;;;;;;6.6;6;;;;;;;17.95;67.04199;94396.45;;;;
2019/06/06 03:28:55;;;;;;;6.6;6;;;;;;;17.95;67.04199;94396.45;;;;
2019/06/06 03:29:56;;;;;;;6.6;6;;;;;;;17.95;67.04199;94396.45;;;;
2019/06/06 03:30:57;;;;;;;6.6;6;;;;;;;17.95;67.04199;94396.45;;;;
2019/06/06 03:31:58;;;;;;;6.6;6;;;;;;;17.95;67.04199;94396.45;;;;
2019/06/06 03:32:59;;;;;;;6.6;6;;;;;;;17.95;67.04199;94396.45;;;;
2019/06/06 03:34:00;;;;;;;6.6;6;;;;;;;17.95;67.04199;94396.45;;;;
2019/06/06 03:35:01;;;;;;;6.6;6;;;;;;;17.95;67.04199;94396.45;;;;
2019/06/06 03:36:03;;;;;;;6.6;6;;;;;;;17.95;67.04199;94396.45;;;;
2019/06/06 03:37:04;;;;;;;6.6;6;;;;;;;17.95;67.04199;94396.45;;;;
2019/06/06 03:38:05;;;;;;;6.2;5.249999;;;;;;;17.84;67.29883;94406.76;;;;
2019/06/06 03:39:06;;;;;;;6.2;5.249999;;;;;;;17.84;67.29883;94406.76;;;;
2019/06/06 03:40:07;;;;;;;6.2;5.249999;;;;;;;17.84;67.29883;94406.76;;;;
2019/06/06 03:41:08;;;;;;;6.2;5.249999;;;;;;;17.84;67.29883;94406.76;;;;
2019/06/06 03:42:09;;;;;;;6.2;5.249999;;;;;;;17.84;67.29883;94406.76;;;;
2019/06/06 03:43:10;;;;;;;6.2;5.249999;;;;;;;17.84;67.29883;94406.76;;;;
2019/06/06 03:44:11;;;;;;;6.2;5.249999;;;;;;;17.84;67.29883;94406.76;;;;
2019/06/06 03:45:12;;;;;;;6.2;5.249999;;;;;;;17.84;67.29883;94406.76;;;;
2019/06/06 03:46:14;;;;;;;6.2;5.249999;;;;;;;17.84;67.29883;94406.76;;;;
2019/06/06 03:47:15;;;;;;;6.2;5.249999;;;;;;;17.84;67.29883;94406.76;;;;
2019/06/06 03:48:16;;;;;;;6.2;5.249999;;;;;;;17.84;67.29883;94406.76;;;;
2019/06/06 03:49:17;;;;;;;7;5.7;;;;;;;17.71;67.44238;94421.2;;;;
2019/06/06 03:50:18;;;;;;;7;5.7;;;;;;;17.71;67.44238;94421.2;;;;
2019/06/06 03:51:19;;;;;;;7;5.7;;;;;;;17.71;67.44238;94421.2;;;;
2019/06/06 03:52:20;;;;;;;7;5.7;;;;;;;17.71;67.44238;94421.2;;;;
2019/06/06 03:53:21;;;;;;;7;5.7;;;;;;;17.71;67.44238;94421.2;;;;
2019/06/06 03:54:22;;;;;;;7;5.7;;;;;;;17.71;67.44238;94421.2;;;;
2019/06/06 03:55:23;;;;;;;7;5.7;;;;;;;17.71;67.44238;94421.2;;;;
2019/06/06 03:56:24;;;;;;;7;5.7;;;;;;;17.71;67.44238;94421.2;;;;
2019/06/06 03:57:25;;;;;;;7;5.7;;;;;;;17.71;67.44238;94421.2;;;;
2019/06/06 03:58:26;;;;;;;7;5.7;;;;;;;17.71;67.44238;94421.2;;;;
2019/06/06 03:59:27;;;;;;;7;5.7;;;;;;;17.71;67.44238;94421.2;;;;
2019/06/06 04:00:28;;;;;;;7;5.7;;;;;;;17.71;67.44238;94421.2;;;;
2019/06/06 04:01:29;;;;;;;7;5.7;;;;;;;17.71;67.44238;94421.2;;;;
2019/06/06 04:02:30;;;;;;;7;5.7;;;;;;;17.71;67.44238;94421.2;;;;
2019/06/06 04:03:32;;;;;;;7;5.7;;;;;;;17.71;67.44238;94421.2;;;;
2019/06/06 04:04:33;;;;;;;7;5.7;;;;;;;17.71;67.44238;94421.2;;;;
2019/06/06 04:05:34;;;;;;;7;5.7;;;;;;;17.71;67.44238;94421.2;;;;
2019/06/06 04:06:35;;;;;;;7;5.7;;;;;;;17.71;67.44238;94421.2;;;;
2019/06/06 04:07:36;;;;;;;7;5.7;;;;;;;17.71;67.44238;94421.2;;;;
2019/06/06 04:08:37;;;;;;;7;5.7;;;;;;;17.71;67.44238;94421.2;;;;
2019/06/06 04:09:38;;;;;;;6.05;5.149999;;;;;;;17.6;67.97168;94485.71;;;;
2019/06/06 04:10:39;;;;;;;6.05;5.149999;;;;;;;17.6;67.97168;94485.71;;;;
2019/06/06 04:11:40;;;;;;;6.05;5.149999;;;;;;;17.6;67.97168;94485.71;;;;
2019/06/06 04:12:41;;;;;;;6.05;5.149999;;;;;;;17.6;67.97168;94485.71;;;;
2019/06/06 04:13:42;;;;;;;6.05;5.149999;;;;;;;17.6;67.97168;94485.71;;;;
2019/06/06 04:14:43;;;;;;;6.05;5.149999;;;;;;;17.6;67.97168;94485.71;;;;
2019/06/06 04:15:44;;;;;;;6.05;5.149999;;;;;;;17.6;67.97168;94485.71;;;;
2019/06/06 04:16:46;;;;;;;6.05;5.149999;;;;;;;17.6;67.97168;94485.71;;;;
2019/06/06 04:17:47;;;;;;;6.05;5.149999;;;;;;;17.6;67.97168;94485.71;;;;
2019/06/06 04:18:48;;;;;;;6.05;5.149999;;;;;;;17.6;67.97168;94485.71;;;;
2019/06/06 04:19:49;;;;;;;6.05;5.149999;;;;;;;17.6;67.97168;94485.71;;;;
2019/06/06 04:20:50;;;;;;;5.649999;5.1;;;;;;;17.62;68.04883;94518.16;;;;
2019/06/06 04:21:51;;;;;;;5.649999;5.1;;;;;;;17.62;68.04883;94518.16;;;;
2019/06/06 04:22:52;;;;;;;5.649999;5.1;;;;;;;17.62;68.04883;94518.16;;;;
2019/06/06 04:23:53;;;;;;;5.649999;5.1;;;;;;;17.62;68.04883;94518.16;;;;
2019/06/06 04:24:54;;;;;;;5.649999;5.1;;;;;;;17.62;68.04883;94518.16;;;;
2019/06/06 04:25:55;;;;;;;5.649999;5.1;;;;;;;17.62;68.04883;94518.16;;;;
2019/06/06 04:26:56;;;;;;;5.649999;5.1;;;;;;;17.62;68.04883;94518.16;;;;
2019/06/06 04:27:57;;;;;;;5.649999;5.1;;;;;;;17.62;68.04883;94518.16;;;;
2019/06/06 04:28:58;;;;;;;5.649999;5.1;;;;;;;17.62;68.04883;94518.16;;;;
2019/06/06 04:29:59;;;;;;;5.649999;5.1;;;;;;;17.62;68.04883;94518.16;;;;
2019/06/06 04:31:00;;;;;;;5.199999;4.699999;;;;;;;17.95;67.59961;94534.23;;;;
2019/06/06 04:32:01;;;;;;;5.199999;4.699999;;;;;;;17.95;67.59961;94534.23;;;;
2019/06/06 04:33:03;;;;;;;5.199999;4.699999;;;;;;;17.95;67.59961;94534.23;;;;
2019/06/06 04:34:04;;;;;;;5.199999;4.699999;;;;;;;17.95;67.59961;94534.23;;;;
2019/06/06 04:35:05;;;;;;;5.199999;4.699999;;;;;;;17.95;67.59961;94534.23;;;;
2019/06/06 04:36:06;;;;;;;5.199999;4.699999;;;;;;;17.95;67.59961;94534.23;;;;
2019/06/06 04:37:07;;;;;;;5.199999;4.699999;;;;;;;17.95;67.59961;94534.23;;;;
2019/06/06 04:38:08;;;;;;;5.199999;4.699999;;;;;;;17.95;67.59961;94534.23;;;;
2019/06/06 04:39:09;;;;;;;5.199999;4.699999;;;;;;;17.95;67.59961;94534.23;;;;
2019/06/06 04:40:10;;;;;;;5.199999;4.699999;;;;;;;17.95;67.59961;94534.23;;;;
2019/06/06 04:41:11;;;;;;;5.199999;4.699999;;;;;;;17.95;67.59961;94534.23;;;;
2019/06/06 04:42:12;;;;;;;7.399999;4.400001;;;;;;;18.39;67.26172;94548.33;;;;
2019/06/06 04:43:13;;;;;;;7.399999;4.400001;;;;;;;18.39;67.26172;94548.33;;;;
2019/06/06 04:44:14;;;;;;;7.399999;4.400001;;;;;;;18.39;67.26172;94548.33;;;;
2019/06/06 04:45:15;;;;;;;7.399999;4.400001;;;;;;;18.39;67.26172;94548.33;;;;
2019/06/06 04:46:16;;;;;;;7.399999;4.400001;;;;;;;18.39;67.26172;94548.33;;;;
2019/06/06 04:47:17;;;;;;;7.399999;4.400001;;;;;;;18.39;67.26172;94548.33;;;;
2019/06/06 04:48:19;;;;;;;7.399999;4.400001;;;;;;;18.39;67.26172;94548.33;;;;
2019/06/06 04:49:20;;;;;;;7.399999;4.400001;;;;;;;18.39;67.26172;94548.33;;;;
2019/06/06 04:50:21;;;;;;;7.399999;4.400001;;;;;;;18.39;67.26172;94548.33;;;;
2019/06/06 04:51:22;;;;;;;7.399999;4.400001;;;;;;;18.39;67.26172;94548.33;;;;
2019/06/06 04:52:23;;;;;;;6.200001;4.699999;;;;;;;18.67;67.05371;94571.48;;;;
2019/06/06 04:53:24;;;;;;;6.200001;4.699999;;;;;;;18.67;67.05371;94571.48;;;;
2019/06/06 04:54:25;;;;;;;6.200001;4.699999;;;;;;;18.67;67.05371;94571.48;;;;
2019/06/06 04:55:26;;;;;;;6.200001;4.699999;;;;;;;18.67;67.05371;94571.48;;;;
2019/06/06 04:56:27;;;;;;;6.200001;4.699999;;;;;;;18.67;67.05371;94571.48;;;;
2019/06/06 04:57:28;;;;;;;6.200001;4.699999;;;;;;;18.67;67.05371;94571.48;;;;
2019/06/06 04:58:29;;;;;;;6.200001;4.699999;;;;;;;18.67;67.05371;94571.48;;;;
2019/06/06 04:59:30;;;;;;;6.200001;4.699999;;;;;;;18.67;67.05371;94571.48;;;;
2019/06/06 05:00:31;;;;;;;6.200001;4.699999;;;;;;;18.67;67.05371;94571.48;;;;
2019/06/06 05:01:32;;;;;;;6.200001;4.699999;;;;;;;18.67;67.05371;94571.48;;;;
2019/06/06 05:02:34;;;;;;;6.1;5;;;;;;;18.83;67.09961;94600.16;;;;
2019/06/06 05:03:35;;;;;;;6.1;5;;;;;;;18.83;67.09961;94600.16;;;;
2019/06/06 05:04:36;;;;;;;6.1;5;;;;;;;18.83;67.09961;94600.16;;;;
2019/06/06 05:05:37;;;;;;;6.1;5;;;;;;;18.83;67.09961;94600.16;;;;
2019/06/06 05:06:38;;;;;;;6.1;5;;;;;;;18.83;67.09961;94600.16;;;;
2019/06/06 05:07:39;;;;;;;6.1;5;;;;;;;18.83;67.09961;94600.16;;;;
2019/06/06 05:08:40;;;;;;;6.1;5;;;;;;;18.83;67.09961;94600.16;;;;
2019/06/06 05:09:41;;;;;;;6.1;5;;;;;;;18.83;67.09961;94600.16;;;;
2019/06/06 05:10:42;;;;;;;6.1;5;;;;;;;18.83;67.09961;94600.16;;;;
2019/06/06 05:11:43;;;;;;;6.1;5;;;;;;;18.83;67.09961;94600.16;;;;
2019/06/06 05:12:44;;;;;;;6.1;5;;;;;;;18.83;67.09961;94600.16;;;;
2019/06/06 05:13:45;;;;;;;7;5.500001;;;;;;;18.82;67.3584;94610.83;;;;
2019/06/06 05:14:46;;;;;;;7;5.500001;;;;;;;18.82;67.3584;94610.83;;;;
2019/06/06 05:15:47;;;;;;;7;5.500001;;;;;;;18.82;67.3584;94610.83;;;;
2019/06/06 05:16:49;;;;;;;7;5.500001;;;;;;;18.82;67.3584;94610.83;;;;
2019/06/06 05:17:50;;;;;;;7;5.500001;;;;;;;18.82;67.3584;94610.83;;;;
2019/06/06 05:18:51;;;;;;;7;5.500001;;;;;;;18.82;67.3584;94610.83;;;;
2019/06/06 05:19:52;;;;;;;7;5.500001;;;;;;;18.82;67.3584;94610.83;;;;
2019/06/06 05:20:53;;;;;;;7;5.500001;;;;;;;18.82;67.3584;94610.83;;;;
2019/06/06 05:21:54;;;;;;;7;5.500001;;;;;;;18.82;67.3584;94610.83;;;;
2019/06/06 05:22:55;;;;;;;7;5.500001;;;;;;;18.82;67.3584;94610.83;;;;
2019/06/06 05:23:56;;;;;;;14.15;5.25;;;;;;;18.91;67.37305;94628.16;;;;
2019/06/06 05:24:57;;;;;;;14.15;5.25;;;;;;;18.91;67.37305;94628.16;;;;
2019/06/06 05:25:58;;;;;;;14.15;5.25;;;;;;;18.91;67.37305;94628.16;;;;
2019/06/06 05:26:59;;;;;;;14.15;5.25;;;;;;;18.91;67.37305;94628.16;;;;
2019/06/06 05:28:00;;;;;;;14.15;5.25;;;;;;;18.91;67.37305;94628.16;;;;
2019/06/06 05:29:01;;;;;;;14.15;5.25;;;;;;;18.91;67.37305;94628.16;;;;
2019/06/06 05:30:02;;;;;;;14.15;5.25;;;;;;;18.91;67.37305;94628.16;;;;
2019/06/06 05:31:04;;;;;;;14.15;5.25;;;;;;;18.91;67.37305;94628.16;;;;
2019/06/06 05:32:05;;;;;;;14.15;5.25;;;;;;;18.91;67.37305;94628.16;;;;
2019/06/06 05:33:06;;;;;;;14.15;5.25;;;;;;;18.91;67.37305;94628.16;;;;
2019/06/06 05:34:07;;;;;;;14.15;5.25;;;;;;;18.91;67.37305;94628.16;;;;
2019/06/06 05:35:08;;;;;;;10.45;5.849999;;;;;;;19.1;67.68555;94639.43;;;;
2019/06/06 05:36:10;;;;;;;10.45;5.849999;;;;;;;19.1;67.68555;94639.43;;;;
2019/06/06 05:37:11;;;;;;;10.45;5.849999;;;;;;;19.1;67.68555;94639.43;;;;